createdAt,value
2018-10-12T00:01:13.909Z,129.57
2018-10-12T00:03:43.784Z,127.67
2018-10-12T00:06:29.322Z,94.60
2018-10-12T00:08:58.336Z,99.13
2018-10-12T00:11:27.931Z,94.47
2018-10-12T00:13:57.561Z,96.43
2018-10-12T00:16:27.104Z,88.53
2018-10-12T00:18:58.286Z,73.13
2018-10-12T00:21:27.323Z,77.93
2018-10-12T00:23:56.917Z,78.97
2018-10-12T00:26:25.974Z,93.27
2018-10-12T00:28:55.838Z,93.37
2018-10-12T00:31:24.902Z,103.23
2018-10-12T00:33:56.023Z,76.43
2018-10-12T00:36:24.896Z,86.87
2018-10-12T00:38:55.212Z,87.57
2018-10-12T00:41:24.073Z,76.27
2018-10-12T00:43:53.359Z,81.70
2018-10-12T00:46:22.284Z,66.07
2018-10-12T00:48:52.988Z,85.20
2018-10-12T00:51:21.990Z,88.33
2018-10-12T00:53:51.658Z,96.70
2018-10-12T00:56:20.633Z,103.93
2018-10-12T00:58:51.065Z,105.37
2018-10-12T01:01:21.308Z,105.73
2018-10-12T01:03:51.530Z,95.77
2018-10-12T01:06:20.462Z,102.27
2018-10-12T01:08:49.448Z,93.80
2018-10-12T01:11:19.644Z,109.07
2018-10-12T01:13:49.110Z,107.63
2018-10-12T01:16:18.107Z,92.73
2018-10-12T01:18:47.945Z,99.27
2018-10-12T01:21:16.996Z,101.37
2018-10-12T01:23:46.184Z,108.67
2018-10-12T01:26:15.303Z,112.17
2018-10-12T01:28:48.686Z,99.60
2018-10-12T01:31:17.945Z,96.70
2018-10-12T01:33:48.049Z,101.07
2018-10-12T01:36:17.075Z,101.17
2018-10-12T01:38:46.156Z,103.93
2018-10-12T01:41:15.382Z,95.43
2018-10-12T01:43:45.360Z,103.40
2018-10-12T01:46:14.623Z,115.13
2018-10-12T01:48:44.512Z,122.90
2018-10-12T01:51:14.126Z,116.53
2018-10-12T01:53:43.782Z,106.80
2018-10-12T01:56:14.531Z,110.50
2018-10-12T01:58:44.258Z,103.17
2018-10-12T02:01:14.315Z,111.03
2018-10-12T02:03:43.341Z,122.03
2018-10-12T02:06:14.300Z,118.10
2018-10-12T02:08:44.529Z,114.10
2018-10-12T02:11:14.037Z,108.77
2018-10-12T02:13:43.284Z,112.87
2018-10-12T02:16:12.459Z,117.73
2018-10-12T02:18:41.970Z,127.10
2018-10-12T02:21:11.657Z,143.07
2018-10-12T02:23:41.442Z,116.47
2018-10-12T02:26:11.390Z,135.03
2018-10-12T02:28:40.578Z,108.60
2018-10-12T02:31:09.541Z,125.37
2018-10-12T02:33:39.069Z,131.57
2018-10-12T02:36:08.447Z,130.03
2018-10-12T02:38:37.606Z,127.53
2018-10-12T02:41:07.144Z,128.07
2018-10-12T02:43:36.525Z,129.23
2018-10-12T02:46:05.672Z,146.83
2018-10-12T02:48:35.908Z,109.73
2018-10-12T02:51:05.067Z,117.97
2018-10-12T02:53:34.590Z,112.13
2018-10-12T02:56:04.280Z,140.87
2018-10-12T02:58:34.276Z,94.43
2018-10-12T03:01:04.041Z,120.90
2018-10-12T03:03:33.676Z,122.93
2018-10-12T03:06:02.518Z,95.07
2018-10-12T03:08:31.645Z,101.20
2018-10-12T03:11:01.081Z,138.27
2018-10-12T03:13:29.929Z,110.67
2018-10-12T03:15:58.866Z,104.10
2018-10-12T03:18:28.377Z,128.37
2018-10-12T03:20:57.225Z,107.50
2018-10-12T03:23:26.754Z,147.73
2018-10-12T03:25:56.504Z,109.20
2018-10-12T03:28:30.998Z,131.10
2018-10-12T03:31:00.605Z,132.07
2018-10-12T03:33:30.524Z,116.07
2018-10-12T03:35:59.587Z,112.73
2018-10-12T03:38:28.400Z,123.27
2018-10-12T03:40:57.364Z,90.23
2018-10-12T03:43:26.356Z,87.20
2018-10-12T03:45:55.538Z,98.90
2018-10-12T03:48:24.526Z,135.13
2018-10-12T03:50:53.991Z,86.40
2018-10-12T03:53:23.408Z,88.83
2018-10-12T03:55:52.288Z,96.37
2018-10-12T03:58:21.641Z,112.13
2018-10-12T04:00:51.201Z,126.43
2018-10-12T04:03:20.133Z,96.07
2018-10-12T04:05:50.390Z,102.87
2018-10-12T04:08:19.387Z,94.80
2018-10-12T04:10:48.860Z,95.13
2018-10-12T04:13:17.850Z,114.50
2018-10-12T04:15:46.757Z,106.03
2018-10-12T04:18:16.334Z,125.33
2018-10-12T04:20:45.798Z,116.63
2018-10-12T04:23:14.833Z,113.20
2018-10-12T04:25:44.440Z,105.30
2018-10-12T04:28:13.494Z,106.20
2018-10-12T04:30:42.460Z,101.87
2018-10-12T04:33:12.244Z,114.17
2018-10-12T04:35:41.492Z,103.27
2018-10-12T04:38:10.592Z,103.83
2018-10-12T04:41:46.608Z,105.77
2018-10-12T04:44:16.063Z,103.97
2018-10-12T04:46:45.313Z,103.50
2018-10-12T04:49:16.680Z,97.83
2018-10-12T04:51:49.257Z,105.50
2018-10-12T04:54:24.537Z,91.17
2018-10-12T04:56:54.067Z,99.33
2018-10-12T04:59:23.948Z,99.87
2018-10-12T05:01:52.957Z,114.37
2018-10-12T05:04:23.101Z,132.27
2018-10-12T05:06:52.048Z,132.37
2018-10-12T05:09:20.962Z,124.50
2018-10-12T05:11:49.953Z,115.70
2018-10-12T05:14:19.036Z,244.90
2018-10-12T05:16:48.812Z,176.03
2018-10-12T05:19:17.717Z,288.27
2018-10-12T05:21:46.541Z,409.17
2018-10-12T05:24:16.353Z,383.77
2018-10-12T05:26:45.361Z,340.20
2018-10-12T05:29:14.355Z,426.87
2018-10-12T05:31:43.331Z,312.40
2018-10-12T05:34:12.718Z,441.43
2018-10-12T05:36:41.602Z,390.77
2018-10-12T05:39:12.732Z,446.40
2018-10-12T05:41:41.951Z,412.40
2018-10-12T05:44:11.267Z,553.53
2018-10-12T05:46:41.048Z,535.97
2018-10-12T05:49:22.505Z,466.13
2018-10-12T05:51:52.901Z,469.07
2018-10-12T05:54:22.614Z,448.63
2018-10-12T05:56:53.632Z,270.17
2018-10-12T05:59:26.975Z,324.83
2018-10-12T06:01:56.248Z,404.30
2018-10-12T06:04:25.409Z,262.83
2018-10-12T06:06:55.308Z,231.13
2018-10-12T06:09:24.840Z,379.10
2018-10-12T06:11:55.341Z,314.77
2018-10-12T06:14:24.848Z,347.30
2018-10-12T06:16:54.556Z,379.33
2018-10-12T06:19:23.630Z,231.10
2018-10-12T06:21:52.797Z,401.73
2018-10-12T06:24:22.670Z,417.00
2018-10-12T06:26:52.201Z,413.70
2018-10-12T06:29:21.540Z,486.90
2018-10-12T06:31:50.881Z,520.67
2018-10-12T06:34:20.930Z,268.10
2018-10-12T06:36:51.385Z,446.23
2018-10-12T06:39:20.748Z,233.37
2018-10-12T06:41:50.058Z,329.97
2018-10-12T06:44:27.264Z,327.53
2018-10-12T06:46:56.561Z,395.20
2018-10-12T06:49:27.497Z,299.37
2018-10-12T06:51:57.289Z,369.53
2018-10-12T06:54:27.199Z,506.43
2018-10-12T06:56:56.655Z,217.57
2018-10-12T06:59:26.576Z,242.47
2018-10-12T07:01:55.612Z,386.13
2018-10-12T07:04:26.171Z,318.27
2018-10-12T07:06:55.314Z,267.37
2018-10-12T07:09:24.259Z,290.70
2018-10-12T07:11:53.568Z,114.53
2018-10-12T07:14:23.144Z,143.23
2018-10-12T07:16:53.161Z,198.80
2018-10-12T07:19:22.547Z,313.03
2018-10-12T07:21:51.954Z,217.57
2018-10-12T07:24:52.589Z,270.03
2018-10-12T07:27:21.584Z,126.57
2018-10-12T07:29:51.179Z,267.30
2018-10-12T07:34:57.026Z,175.93
2018-10-12T07:37:26.322Z,139.53
2018-10-12T07:39:55.364Z,92.90
2018-10-12T07:42:25.399Z,87.30
2018-10-12T07:44:55.254Z,124.33
2018-10-12T07:47:24.432Z,87.57
2018-10-12T07:49:55.248Z,82.77
2018-10-12T07:54:49.715Z,64.30
2018-10-12T07:57:19.431Z,88.37
2018-10-12T07:59:49.256Z,60.43
2018-10-12T08:02:18.855Z,76.50
2018-10-12T08:04:47.912Z,73.47
2018-10-12T08:07:17.046Z,72.70
2018-10-12T08:09:46.603Z,71.53
2018-10-12T08:12:16.175Z,58.37
2018-10-12T08:14:45.823Z,57.27
2018-10-12T08:17:16.093Z,56.20
2018-10-12T08:19:45.433Z,52.77
2018-10-12T08:22:15.268Z,53.30
2018-10-12T08:24:45.371Z,54.83
2018-10-12T08:27:14.608Z,48.53
2018-10-12T08:29:44.842Z,52.07
2018-10-12T08:32:14.480Z,48.30
2018-10-12T08:34:45.448Z,47.23
2018-10-12T08:37:16.080Z,46.57
2018-10-12T08:39:46.107Z,40.20
2018-10-12T08:42:15.801Z,46.07
2018-10-12T08:44:45.155Z,46.73
2018-10-12T08:47:14.945Z,41.97
2018-10-12T08:52:25.685Z,44.07
2018-10-12T08:54:55.303Z,43.97
2018-10-12T08:57:24.938Z,46.37
2018-10-12T09:02:30.054Z,40.97
2018-10-12T09:04:59.546Z,41.43
2018-10-12T09:07:28.803Z,40.63
2018-10-12T09:10:00.158Z,38.80
2018-10-12T09:12:29.222Z,41.07
2018-10-12T09:14:58.461Z,37.90
2018-10-12T09:17:28.851Z,37.07
2018-10-12T09:19:57.896Z,38.87
2018-10-12T09:22:27.090Z,36.90
2018-10-12T09:24:56.754Z,36.03
2018-10-12T09:27:25.741Z,39.43
2018-10-12T09:29:54.869Z,35.53
2018-10-12T09:32:23.806Z,36.77
2018-10-12T09:34:53.576Z,36.43
2018-10-12T09:37:23.193Z,36.23
2018-10-12T09:42:39.034Z,32.90
2018-10-12T09:45:08.053Z,34.03
2018-10-12T09:47:37.359Z,33.67
2018-10-12T09:50:07.341Z,32.30
2018-10-12T09:52:37.176Z,32.60
2018-10-12T09:55:07.399Z,34.07
2018-10-12T09:57:39.364Z,34.93
2018-10-12T10:00:14.828Z,34.30
2018-10-12T10:02:48.641Z,29.90
2018-10-12T10:05:17.950Z,30.87
2018-10-12T10:07:47.007Z,31.80
2018-10-12T10:10:15.908Z,30.10
2018-10-12T10:12:44.848Z,30.50
2018-10-12T10:15:13.745Z,31.07
2018-10-12T10:17:43.205Z,28.70
2018-10-12T10:20:12.104Z,28.87
2018-10-12T10:22:41.099Z,28.73
2018-10-12T10:25:10.857Z,31.57
2018-10-12T10:27:39.889Z,30.53
2018-10-12T10:30:09.157Z,26.97
2018-10-12T10:32:38.537Z,28.57
2018-10-12T10:35:08.247Z,27.40
2018-10-12T10:37:37.390Z,28.20
2018-10-12T10:40:06.695Z,29.70
2018-10-12T10:42:35.808Z,26.93
2018-10-12T10:45:04.999Z,27.00
2018-10-12T10:47:34.135Z,27.57
2018-10-12T10:50:03.504Z,28.30
2018-10-12T10:52:33.293Z,26.13
2018-10-12T10:55:03.901Z,28.43
2018-10-12T10:57:33.542Z,28.13
2018-10-12T11:00:04.287Z,25.43
2018-10-12T11:06:05.034Z,24.33
2018-10-12T11:08:33.983Z,26.60
2018-10-12T11:11:04.758Z,29.70
2018-10-12T11:13:33.757Z,26.60
2018-10-12T11:16:02.561Z,23.83
2018-10-12T11:18:32.202Z,26.10
2018-10-12T11:21:01.420Z,27.20
2018-10-12T11:23:30.265Z,24.30
2018-10-12T11:25:59.665Z,23.83
2018-10-12T11:28:28.512Z,23.37
2018-10-12T11:30:57.381Z,22.10
2018-10-12T11:33:27.438Z,23.37
2018-10-12T11:35:56.254Z,23.03
2018-10-12T11:38:25.081Z,22.20
2018-10-12T11:40:54.004Z,21.90
2018-10-12T11:43:33.889Z,22.33
2018-10-12T11:46:03.168Z,22.07
2018-10-12T11:48:32.131Z,22.30
2018-10-12T11:51:01.968Z,24.37
2018-10-12T11:53:31.519Z,22.17
2018-10-12T11:56:00.524Z,22.30
2018-10-12T11:58:30.017Z,22.67
2018-10-12T12:00:59.706Z,24.47
2018-10-12T12:03:28.529Z,22.37
2018-10-12T12:05:57.319Z,21.40
2018-10-12T12:08:26.173Z,23.20
2018-10-12T12:10:55.082Z,21.30
2018-10-12T12:13:24.068Z,23.50
2018-10-12T12:15:52.883Z,21.17
2018-10-12T12:18:22.896Z,22.13
2018-10-12T12:20:51.711Z,23.00
2018-10-12T12:23:20.540Z,20.43
2018-10-12T12:25:50.036Z,21.33
2018-10-12T12:28:18.872Z,21.57
2018-10-12T12:30:48.873Z,22.07
2018-10-12T12:33:18.555Z,22.77
2018-10-12T12:35:47.771Z,26.00
2018-10-12T12:38:16.283Z,24.13
2018-10-12T12:40:45.121Z,21.67
2018-10-12T12:43:14.038Z,21.67
2018-10-12T12:45:43.056Z,20.60
2018-10-12T12:48:12.533Z,22.90
2018-10-12T12:50:41.993Z,22.67
2018-10-12T12:53:11.573Z,23.10
2018-10-12T12:55:40.502Z,20.90
2018-10-12T12:58:09.956Z,22.03
2018-10-12T13:00:39.510Z,21.93
2018-10-12T13:03:08.666Z,21.77
2018-10-12T13:05:37.714Z,22.30
2018-10-12T13:08:07.068Z,22.53
2018-10-12T13:10:37.058Z,21.77
2018-10-12T13:13:06.348Z,21.63
2018-10-12T13:15:35.486Z,21.90
2018-10-12T13:18:04.863Z,20.30
2018-10-12T13:20:33.832Z,22.07
2018-10-12T13:23:02.674Z,22.30
2018-10-12T13:25:32.169Z,22.53
2018-10-12T13:28:01.941Z,20.70
2018-10-12T13:30:30.814Z,21.70
2018-10-12T13:33:00.510Z,19.10
2018-10-12T13:35:29.359Z,20.87
2018-10-12T13:37:58.229Z,19.97
2018-10-12T13:40:27.095Z,21.63
2018-10-12T13:42:56.061Z,19.50
2018-10-12T13:45:25.057Z,20.67
2018-10-12T13:47:53.936Z,19.93
2018-10-12T13:50:23.511Z,19.83
2018-10-12T13:52:52.852Z,19.97
2018-10-12T13:55:21.793Z,20.53
2018-10-12T13:57:51.139Z,20.23
2018-10-12T14:00:20.600Z,20.13
2018-10-12T14:02:49.401Z,20.87
2018-10-12T14:05:18.237Z,19.93
2018-10-12T14:07:47.176Z,20.23
2018-10-12T14:10:16.400Z,19.40
2018-10-12T14:12:45.272Z,20.63
2018-10-12T14:15:14.136Z,20.80
2018-10-12T14:17:43.668Z,20.40
2018-10-12T14:20:12.528Z,20.77
2018-10-12T14:22:41.464Z,19.03
2018-10-12T14:25:11.171Z,21.73
2018-10-12T14:27:39.973Z,19.40
2018-10-12T14:30:09.275Z,23.83
2018-10-12T14:32:38.395Z,21.80
2018-10-12T14:35:07.929Z,20.23
2018-10-12T14:37:37.204Z,20.77
2018-10-12T14:40:06.500Z,19.70
2018-10-12T14:42:35.392Z,22.00
2018-10-12T14:45:04.520Z,22.33
2018-10-12T14:47:34.451Z,18.97
2018-10-12T14:50:06.142Z,21.50
2018-10-12T14:52:35.856Z,19.53
2018-10-12T14:55:05.305Z,20.43
2018-10-12T14:57:34.731Z,19.07
2018-10-12T15:00:04.982Z,19.80
2018-10-12T15:02:33.974Z,18.97
2018-10-12T15:05:04.030Z,21.07
2018-10-12T15:07:32.964Z,18.90
2018-10-12T15:10:02.791Z,20.20
2018-10-12T15:12:31.559Z,20.63
2018-10-12T15:15:25.439Z,19.57
2018-10-12T15:17:55.707Z,21.53
2018-10-12T15:20:24.662Z,19.40
2018-10-12T15:22:54.215Z,19.90
2018-10-12T15:25:23.881Z,21.13
2018-10-12T15:27:52.663Z,19.17
2018-10-12T15:30:21.597Z,19.87
2018-10-12T15:32:51.534Z,22.90
2018-10-12T15:35:20.477Z,20.10
2018-10-12T15:37:49.302Z,20.83
2018-10-12T15:40:18.652Z,20.87
2018-10-12T15:42:47.642Z,20.17
2018-10-12T15:45:16.654Z,20.60
2018-10-12T15:47:45.602Z,20.93
2018-10-12T15:50:15.254Z,20.30
2018-10-12T15:52:45.080Z,21.77
2018-10-12T15:55:13.926Z,21.33
2018-10-12T15:57:43.310Z,20.40
2018-10-12T16:00:12.943Z,21.57
2018-10-12T16:02:41.888Z,22.20
2018-10-12T16:05:11.005Z,22.20
2018-10-12T16:07:39.928Z,21.13
2018-10-12T16:10:09.714Z,22.17
2018-10-12T16:12:38.908Z,19.97
2018-10-12T16:15:07.953Z,21.87
2018-10-12T16:17:37.990Z,19.83
2018-10-12T16:20:07.834Z,21.80
2018-10-12T16:22:37.098Z,22.17
2018-10-12T16:25:17.290Z,22.33
2018-10-12T16:27:46.206Z,20.73
2018-10-12T16:30:15.798Z,21.37
2018-10-12T16:32:45.274Z,23.67
2018-10-12T16:35:14.154Z,20.87
2018-10-12T16:37:47.659Z,24.80
2018-10-12T16:40:16.612Z,23.03
2018-10-12T16:42:45.577Z,23.53
2018-10-12T16:45:14.553Z,24.73
2018-10-12T16:47:43.457Z,22.33
2018-10-12T16:50:13.173Z,22.87
2018-10-12T16:52:42.059Z,24.07
2018-10-12T16:55:11.779Z,22.33
2018-10-12T16:57:41.520Z,22.03
2018-10-12T17:00:11.120Z,21.20
2018-10-12T17:02:40.323Z,21.37
2018-10-12T17:05:09.440Z,22.57
2018-10-12T17:07:38.625Z,20.87
2018-10-12T17:10:08.765Z,21.50
2018-10-12T17:12:39.542Z,21.00
2018-10-12T17:15:13.373Z,22.80
2018-10-12T17:17:42.705Z,21.50
2018-10-12T17:20:11.587Z,22.53
2018-10-12T17:22:40.636Z,20.93
2018-10-12T17:25:11.191Z,22.23
2018-10-12T17:27:40.414Z,21.90
2018-10-12T17:30:10.408Z,22.70
2018-10-12T17:32:39.542Z,19.23
2018-10-12T17:35:09.478Z,22.80
2018-10-12T17:37:38.568Z,20.50
2018-10-12T17:40:09.482Z,21.13
2018-10-12T17:42:38.600Z,22.60
2018-10-12T17:45:08.633Z,18.43
2018-10-12T17:47:37.992Z,20.67
2018-10-12T17:50:08.009Z,21.17
2018-10-12T17:52:38.617Z,18.23
2018-10-12T17:55:09.329Z,19.87
2018-10-12T17:57:38.726Z,20.53
2018-10-12T18:00:09.740Z,20.27
2018-10-12T18:02:39.155Z,19.93
2018-10-12T18:05:09.114Z,17.73
2018-10-12T18:07:38.401Z,19.90
2018-10-12T18:10:10.174Z,17.30
2018-10-12T18:12:39.140Z,18.17
2018-10-12T18:15:10.850Z,18.07
2018-10-12T18:17:40.684Z,19.50
2018-10-12T18:20:10.059Z,18.80
2018-10-12T18:22:39.389Z,18.73
2018-10-12T18:25:09.456Z,17.00
2018-10-12T18:27:38.567Z,16.50
2018-10-12T18:30:08.339Z,17.90
2018-10-12T18:32:37.386Z,18.27
2018-10-12T18:35:07.326Z,18.73
2018-10-12T18:37:36.353Z,19.37
2018-10-12T18:40:05.812Z,18.00
2018-10-12T18:42:35.490Z,18.20
2018-10-12T18:45:04.690Z,16.63
2018-10-12T18:47:34.502Z,16.63
2018-10-12T18:50:04.538Z,16.93
2018-10-12T18:52:33.477Z,20.63
2018-10-12T18:55:02.993Z,17.73
2018-10-12T18:57:35.544Z,18.70
2018-10-12T19:00:07.344Z,17.30
2018-10-12T19:02:37.084Z,18.47
2018-10-12T19:05:06.540Z,18.97
2018-10-12T19:07:35.614Z,18.87
2018-10-12T19:10:06.036Z,18.73
2018-10-12T19:12:35.093Z,18.43
2018-10-12T19:15:04.854Z,19.57
2018-10-12T19:17:34.757Z,17.87
2018-10-12T19:20:04.506Z,17.03
2018-10-12T19:22:34.367Z,20.23
2018-10-12T19:25:04.745Z,18.47
2018-10-12T19:27:33.772Z,19.63
2018-10-12T19:30:03.410Z,18.63
2018-10-12T19:32:32.360Z,18.27
2018-10-12T19:35:01.694Z,21.47
2018-10-12T19:37:30.631Z,18.73
2018-10-12T19:39:59.511Z,20.00
2018-10-12T19:42:28.556Z,19.03
2018-10-12T19:44:57.589Z,19.37
2018-10-12T19:47:27.002Z,21.20
2018-10-12T19:49:56.409Z,20.03
2018-10-12T19:52:25.347Z,19.47
2018-10-12T19:54:54.728Z,18.97
2018-10-12T19:57:24.334Z,19.80
2018-10-12T19:59:53.751Z,23.17
2018-10-12T20:02:23.123Z,19.83
2018-10-12T20:04:51.985Z,20.10
2018-10-12T20:07:20.914Z,19.93
2018-10-12T20:09:51.235Z,19.70
2018-10-12T20:12:20.931Z,24.40
2018-10-12T20:14:50.192Z,19.80
2018-10-12T20:17:19.688Z,20.37
2018-10-12T20:19:48.632Z,21.83
2018-10-12T20:22:17.629Z,18.50
2018-10-12T20:24:47.295Z,19.90
2018-10-12T20:27:17.879Z,22.60
2018-10-12T20:29:46.996Z,20.17
2018-10-12T20:32:16.154Z,19.93
2018-10-12T20:34:46.584Z,20.60
2018-10-12T20:37:15.812Z,22.93
2018-10-12T20:39:44.819Z,22.00
2018-10-12T20:42:14.254Z,23.03
2018-10-12T20:44:43.271Z,21.73
2018-10-12T20:47:12.617Z,21.67
2018-10-12T20:49:42.160Z,23.13
2018-10-12T20:52:12.131Z,21.30
2018-10-12T20:54:42.138Z,23.03
2018-10-12T20:57:13.060Z,24.40
2018-10-12T20:59:43.966Z,20.50
2018-10-12T21:02:13.851Z,20.40
2018-10-12T21:04:43.098Z,22.07
2018-10-12T21:07:12.313Z,20.93
2018-10-12T21:09:42.025Z,21.40
2018-10-12T21:12:11.112Z,22.43
2018-10-12T21:14:40.597Z,22.47
2018-10-12T21:17:14.231Z,22.33
2018-10-12T21:19:50.802Z,21.63
2018-10-12T21:22:22.347Z,22.67
2018-10-12T21:27:42.902Z,23.47
2018-10-12T21:30:13.532Z,25.60
2018-10-12T21:32:51.112Z,22.97
2018-10-12T21:35:22.142Z,21.90
2018-10-12T21:37:52.082Z,24.37
2018-10-12T21:40:21.382Z,22.67
2018-10-12T21:42:51.074Z,22.87
2018-10-12T21:45:22.154Z,22.67
2018-10-12T21:47:52.153Z,21.93
2018-10-12T21:50:21.464Z,24.87
2018-10-12T21:52:52.365Z,23.37
2018-10-12T21:55:25.075Z,23.33
2018-10-12T21:57:55.526Z,24.33
2018-10-12T22:00:25.304Z,26.13
2018-10-12T22:02:55.337Z,24.93
2018-10-12T22:05:24.410Z,26.37
2018-10-12T22:07:55.096Z,28.67
2018-10-12T22:10:24.608Z,23.37
2018-10-12T22:12:53.465Z,24.93
2018-10-12T22:15:22.508Z,24.43
2018-10-12T22:17:53.549Z,25.53
2018-10-12T22:20:22.594Z,26.90
2018-10-12T22:22:51.725Z,23.70
2018-10-12T22:25:23.260Z,22.17
2018-10-12T22:27:53.359Z,28.63
2018-10-12T22:30:29.516Z,26.70
2018-10-12T22:33:18.120Z,26.90
2018-10-12T22:38:30.544Z,25.37
2018-10-12T22:40:59.747Z,24.47
2018-10-12T22:43:29.041Z,24.37
2018-10-12T22:45:58.419Z,24.23
2018-10-12T22:48:27.572Z,24.67
2018-10-12T22:50:56.629Z,25.27
2018-10-12T22:53:27.369Z,25.47
2018-10-12T22:55:56.461Z,27.33
2018-10-12T22:58:26.964Z,24.70
2018-10-12T23:00:56.804Z,25.00
2018-10-12T23:03:26.375Z,26.80
2018-10-12T23:05:55.618Z,28.57
2018-10-12T23:08:25.665Z,27.20
2018-10-12T23:10:55.032Z,26.97
2018-10-12T23:13:25.487Z,24.70
2018-10-12T23:15:55.504Z,25.60
2018-10-12T23:18:25.473Z,28.67
2018-10-12T23:20:54.628Z,29.17
2018-10-12T23:23:23.647Z,29.30
2018-10-12T23:25:53.350Z,28.70
2018-10-12T23:28:22.880Z,26.93
2018-10-12T23:30:51.786Z,28.47
2018-10-12T23:36:14.255Z,28.70
2018-10-12T23:38:43.401Z,29.33
2018-10-12T23:41:13.351Z,34.70
2018-10-12T23:43:42.508Z,28.03
2018-10-12T23:46:11.512Z,30.60
2018-10-12T23:48:41.299Z,27.90
2018-10-12T23:51:10.587Z,27.00
2018-10-12T23:53:41.048Z,28.63
2018-10-12T23:56:11.714Z,29.87
2018-10-12T23:58:41.589Z,29.03
